sensor_id;sensor_type;location;lat;lon;timestamp;temperature;humidity
11446;DHT22;5779;64.178;15.432;2023-05-24T00:00:41;3.60;99.90
11446;DHT22;5779;64.178;15.432;2023-05-24T00:03:28;3.40;99.90
11446;DHT22;5779;64.178;15.432;2023-05-24T00:06:18;3.00;99.90
11446;DHT22;5779;64.178;15.432;2023-05-24T00:09:05;3.00;99.90
11446;DHT22;5779;64.178;15.432;2023-05-24T00:11:52;2.90;99.90
11446;DHT22;5779;64.178;15.432;2023-05-24T00:14:41;3.00;99.90
11446;DHT22;5779;64.178;15.432;2023-05-24T00:17:27;2.90;99.90
11446;DHT22;5779;64.178;15.432;2023-05-24T00:20:15;3.00;99.90
11446;DHT22;5779;64.178;15.432;2023-05-24T00:23:01;3.10;99.90
11446;DHT22;5779;64.178;15.432;2023-05-24T00:25:48;2.90;99.90
11446;DHT22;5779;64.178;15.432;2023-05-24T00:28:35;2.80;99.90
11446;DHT22;5779;64.178;15.432;2023-05-24T00:31:24;2.70;99.90
11446;DHT22;5779;64.178;15.432;2023-05-24T00:34:11;2.70;99.90
11446;DHT22;5779;64.178;15.432;2023-05-24T00:36:58;2.70;99.90
11446;DHT22;5779;64.178;15.432;2023-05-24T00:39:45;2.60;99.90
11446;DHT22;5779;64.178;15.432;2023-05-24T00:42:31;2.60;99.90
11446;DHT22;5779;64.178;15.432;2023-05-24T00:45:18;2.70;99.90
11446;DHT22;5779;64.178;15.432;2023-05-24T00:48:07;2.70;99.90
11446;DHT22;5779;64.178;15.432;2023-05-24T00:50:54;2.60;99.90
11446;DHT22;5779;64.178;15.432;2023-05-24T00:53:44;2.50;99.90
11446;DHT22;5779;64.178;15.432;2023-05-24T00:56:31;2.40;99.90
11446;DHT22;5779;64.178;15.432;2023-05-24T00:59:18;2.20;99.90
11446;DHT22;5779;64.178;15.432;2023-05-24T01:02:05;2.20;99.90
11446;DHT22;5779;64.178;15.432;2023-05-24T01:04:53;2.30;99.90
11446;DHT22;5779;64.178;15.432;2023-05-24T01:07:49;2.30;99.90
11446;DHT22;5779;64.178;15.432;2023-05-24T01:10:42;2.40;99.90
11446;DHT22;5779;64.178;15.432;2023-05-24T01:13:35;2.40;99.90
11446;DHT22;5779;64.178;15.432;2023-05-24T01:16:26;2.30;99.90
11446;DHT22;5779;64.178;15.432;2023-05-24T01:22:49;2.50;99.90
11446;DHT22;5779;64.178;15.432;2023-05-24T01:26:04;2.60;99.90
11446;DHT22;5779;64.178;15.432;2023-05-24T01:28:55;2.50;99.90
11446;DHT22;5779;64.178;15.432;2023-05-24T01:31:42;2.40;99.90
11446;DHT22;5779;64.178;15.432;2023-05-24T01:34:29;2.40;99.90
11446;DHT22;5779;64.178;15.432;2023-05-24T01:37:16;2.50;99.90
11446;DHT22;5779;64.178;15.432;2023-05-24T01:40:04;2.50;99.90
11446;DHT22;5779;64.178;15.432;2023-05-24T01:42:58;2.40;99.90
11446;DHT22;5779;64.178;15.432;2023-05-24T01:45:54;2.30;99.90
11446;DHT22;5779;64.178;15.432;2023-05-24T01:48:53;2.40;99.90
11446;DHT22;5779;64.178;15.432;2023-05-24T01:51:48;2.10;99.90
11446;DHT22;5779;64.178;15.432;2023-05-24T01:54:37;2.20;99.90
11446;DHT22;5779;64.178;15.432;2023-05-24T01:57:26;2.30;99.90
11446;DHT22;5779;64.178;15.432;2023-05-24T02:00:14;2.30;99.90
11446;DHT22;5779;64.178;15.432;2023-05-24T02:03:03;2.40;99.90
11446;DHT22;5779;64.178;15.432;2023-05-24T02:05:50;2.30;99.90
11446;DHT22;5779;64.178;15.432;2023-05-24T02:08:37;2.20;99.90
11446;DHT22;5779;64.178;15.432;2023-05-24T02:11:24;2.20;99.90
11446;DHT22;5779;64.178;15.432;2023-05-24T02:14:11;2.40;99.90
11446;DHT22;5779;64.178;15.432;2023-05-24T02:16:58;2.30;99.90
11446;DHT22;5779;64.178;15.432;2023-05-24T02:19:53;2.40;99.90
11446;DHT22;5779;64.178;15.432;2023-05-24T02:22:40;2.50;99.90
11446;DHT22;5779;64.178;15.432;2023-05-24T02:25:27;2.60;99.90
11446;DHT22;5779;64.178;15.432;2023-05-24T02:28:14;2.70;99.90
11446;DHT22;5779;64.178;15.432;2023-05-24T02:31:01;2.80;99.90
11446;DHT22;5779;64.178;15.432;2023-05-24T02:33:47;2.60;99.90
11446;DHT22;5779;64.178;15.432;2023-05-24T02:36:36;2.60;99.90
11446;DHT22;5779;64.178;15.432;2023-05-24T02:39:23;2.60;99.90
11446;DHT22;5779;64.178;15.432;2023-05-24T02:42:10;2.60;99.90
11446;DHT22;5779;64.178;15.432;2023-05-24T02:44:57;2.70;99.90
11446;DHT22;5779;64.178;15.432;2023-05-24T02:47:43;2.90;99.90
11446;DHT22;5779;64.178;15.432;2023-05-24T02:50:30;3.00;99.90
11446;DHT22;5779;64.178;15.432;2023-05-24T02:53:19;3.10;99.90
11446;DHT22;5779;64.178;15.432;2023-05-24T02:56:06;3.40;99.90
11446;DHT22;5779;64.178;15.432;2023-05-24T02:58:52;3.60;99.90
11446;DHT22;5779;64.178;15.432;2023-05-24T03:01:39;3.60;99.90
11446;DHT22;5779;64.178;15.432;2023-05-24T03:04:26;3.80;99.90
11446;DHT22;5779;64.178;15.432;2023-05-24T03:07:13;4.00;99.90
11446;DHT22;5779;64.178;15.432;2023-05-24T03:10:01;4.20;99.90
11446;DHT22;5779;64.178;15.432;2023-05-24T03:12:49;4.20;99.90
11446;DHT22;5779;64.178;15.432;2023-05-24T03:15:35;4.30;99.90
11446;DHT22;5779;64.178;15.432;2023-05-24T03:18:22;4.40;99.90
11446;DHT22;5779;64.178;15.432;2023-05-24T03:21:09;4.50;99.90
11446;DHT22;5779;64.178;15.432;2023-05-24T03:23:56;4.60;99.90
11446;DHT22;5779;64.178;15.432;2023-05-24T03:26:44;4.60;99.90
11446;DHT22;5779;64.178;15.432;2023-05-24T03:29:31;4.70;99.90
11446;DHT22;5779;64.178;15.432;2023-05-24T03:32:18;4.80;99.90
11446;DHT22;5779;64.178;15.432;2023-05-24T03:35:05;4.80;99.90
11446;DHT22;5779;64.178;15.432;2023-05-24T03:37:52;4.70;99.90
11446;DHT22;5779;64.178;15.432;2023-05-24T03:40:39;4.90;99.90
11446;DHT22;5779;64.178;15.432;2023-05-24T03:43:27;5.20;99.90
11446;DHT22;5779;64.178;15.432;2023-05-24T03:46:14;5.40;99.90
11446;DHT22;5779;64.178;15.432;2023-05-24T03:49:01;5.30;99.90
11446;DHT22;5779;64.178;15.432;2023-05-24T03:51:48;5.20;99.90
11446;DHT22;5779;64.178;15.432;2023-05-24T03:54:35;5.30;99.90
11446;DHT22;5779;64.178;15.432;2023-05-24T03:57:22;5.50;99.90
11446;DHT22;5779;64.178;15.432;2023-05-24T04:00:11;5.60;99.90
11446;DHT22;5779;64.178;15.432;2023-05-24T04:02:58;5.70;99.90
11446;DHT22;5779;64.178;15.432;2023-05-24T04:05:45;5.60;99.90
11446;DHT22;5779;64.178;15.432;2023-05-24T04:08:32;5.50;99.90
11446;DHT22;5779;64.178;15.432;2023-05-24T04:11:19;5.40;99.90
11446;DHT22;5779;64.178;15.432;2023-05-24T04:14:06;5.50;99.90
11446;DHT22;5779;64.178;15.432;2023-05-24T04:16:54;5.60;99.90
11446;DHT22;5779;64.178;15.432;2023-05-24T04:19:41;5.70;99.90
11446;DHT22;5779;64.178;15.432;2023-05-24T04:22:29;5.70;99.90
11446;DHT22;5779;64.178;15.432;2023-05-24T04:25:15;5.50;99.90
11446;DHT22;5779;64.178;15.432;2023-05-24T04:28:02;5.50;99.90
11446;DHT22;5779;64.178;15.432;2023-05-24T04:30:50;5.60;99.90
11446;DHT22;5779;64.178;15.432;2023-05-24T04:33:39;5.80;99.90
11446;DHT22;5779;64.178;15.432;2023-05-24T04:36:26;6.00;99.90
11446;DHT22;5779;64.178;15.432;2023-05-24T04:39:15;6.20;99.90
11446;DHT22;5779;64.178;15.432;2023-05-24T04:42:03;6.40;99.90
11446;DHT22;5779;64.178;15.432;2023-05-24T04:44:50;6.50;99.90
11446;DHT22;5779;64.178;15.432;2023-05-24T04:47:38;6.70;99.90
11446;DHT22;5779;64.178;15.432;2023-05-24T04:50:27;6.90;99.90
11446;DHT22;5779;64.178;15.432;2023-05-24T04:53:14;7.00;99.90
11446;DHT22;5779;64.178;15.432;2023-05-24T04:56:00;7.10;99.90
11446;DHT22;5779;64.178;15.432;2023-05-24T04:58:47;7.30;99.90
11446;DHT22;5779;64.178;15.432;2023-05-24T05:01:34;7.40;99.90
11446;DHT22;5779;64.178;15.432;2023-05-24T05:04:21;7.40;99.90
11446;DHT22;5779;64.178;15.432;2023-05-24T05:07:09;7.20;99.90
11446;DHT22;5779;64.178;15.432;2023-05-24T05:09:56;7.30;99.90
11446;DHT22;5779;64.178;15.432;2023-05-24T05:12:43;7.30;99.90
11446;DHT22;5779;64.178;15.432;2023-05-24T05:15:30;7.30;99.90
11446;DHT22;5779;64.178;15.432;2023-05-24T05:18:17;7.50;99.90
11446;DHT22;5779;64.178;15.432;2023-05-24T05:21:04;7.70;99.90
11446;DHT22;5779;64.178;15.432;2023-05-24T05:23:52;7.70;99.90
11446;DHT22;5779;64.178;15.432;2023-05-24T05:26:39;7.70;99.90
11446;DHT22;5779;64.178;15.432;2023-05-24T05:29:26;7.80;99.90
11446;DHT22;5779;64.178;15.432;2023-05-24T05:32:13;7.70;99.90
11446;DHT22;5779;64.178;15.432;2023-05-24T05:35:01;7.80;99.90
11446;DHT22;5779;64.178;15.432;2023-05-24T05:37:47;7.90;99.90
11446;DHT22;5779;64.178;15.432;2023-05-24T05:40:36;7.90;99.90
11446;DHT22;5779;64.178;15.432;2023-05-24T05:43:23;8.10;99.90
11446;DHT22;5779;64.178;15.432;2023-05-24T05:46:10;8.30;99.90
11446;DHT22;5779;64.178;15.432;2023-05-24T05:48:59;8.30;99.90
11446;DHT22;5779;64.178;15.432;2023-05-24T05:51:46;8.10;99.90
11446;DHT22;5779;64.178;15.432;2023-05-24T05:54:32;8.10;99.90
11446;DHT22;5779;64.178;15.432;2023-05-24T05:57:21;8.10;99.90
11446;DHT22;5779;64.178;15.432;2023-05-24T06:00:09;7.90;99.90
11446;DHT22;5779;64.178;15.432;2023-05-24T06:02:55;7.90;99.90
11446;DHT22;5779;64.178;15.432;2023-05-24T06:05:42;7.90;99.90
11446;DHT22;5779;64.178;15.432;2023-05-24T06:08:29;7.90;99.90
11446;DHT22;5779;64.178;15.432;2023-05-24T06:11:19;7.90;99.90
11446;DHT22;5779;64.178;15.432;2023-05-24T06:14:07;8.00;99.90
11446;DHT22;5779;64.178;15.432;2023-05-24T06:16:55;8.10;99.90
11446;DHT22;5779;64.178;15.432;2023-05-24T06:19:42;8.30;99.90
11446;DHT22;5779;64.178;15.432;2023-05-24T06:22:29;8.20;99.90
11446;DHT22;5779;64.178;15.432;2023-05-24T06:25:16;8.30;99.90
11446;DHT22;5779;64.178;15.432;2023-05-24T06:28:05;8.20;99.90
11446;DHT22;5779;64.178;15.432;2023-05-24T06:30:53;8.40;99.90
11446;DHT22;5779;64.178;15.432;2023-05-24T06:33:40;8.60;99.90
11446;DHT22;5779;64.178;15.432;2023-05-24T06:36:27;8.60;99.90
11446;DHT22;5779;64.178;15.432;2023-05-24T06:39:14;8.50;99.90
11446;DHT22;5779;64.178;15.432;2023-05-24T06:42:01;8.50;99.90
11446;DHT22;5779;64.178;15.432;2023-05-24T06:44:48;8.60;99.90
11446;DHT22;5779;64.178;15.432;2023-05-24T06:47:36;8.60;99.90
11446;DHT22;5779;64.178;15.432;2023-05-24T06:50:23;8.60;99.90
11446;DHT22;5779;64.178;15.432;2023-05-24T06:53:10;8.50;99.90
11446;DHT22;5779;64.178;15.432;2023-05-24T06:55:57;8.70;99.90
11446;DHT22;5779;64.178;15.432;2023-05-24T06:58:44;8.80;99.90
11446;DHT22;5779;64.178;15.432;2023-05-24T07:01:30;8.80;99.90
11446;DHT22;5779;64.178;15.432;2023-05-24T07:04:19;8.60;99.90
11446;DHT22;5779;64.178;15.432;2023-05-24T07:07:07;8.20;99.90
11446;DHT22;5779;64.178;15.432;2023-05-24T07:09:57;8.10;99.90
11446;DHT22;5779;64.178;15.432;2023-05-24T07:12:44;8.20;99.90
11446;DHT22;5779;64.178;15.432;2023-05-24T07:15:31;8.40;99.90
11446;DHT22;5779;64.178;15.432;2023-05-24T07:18:18;8.60;99.90
11446;DHT22;5779;64.178;15.432;2023-05-24T07:21:06;8.90;99.90
11446;DHT22;5779;64.178;15.432;2023-05-24T07:23:53;8.90;99.90
11446;DHT22;5779;64.178;15.432;2023-05-24T07:26:40;8.90;99.90
11446;DHT22;5779;64.178;15.432;2023-05-24T07:29:27;9.00;99.90
11446;DHT22;5779;64.178;15.432;2023-05-24T07:32:13;8.80;99.90
11446;DHT22;5779;64.178;15.432;2023-05-24T07:35:00;8.80;99.90
11446;DHT22;5779;64.178;15.432;2023-05-24T07:37:49;9.00;99.90
11446;DHT22;5779;64.178;15.432;2023-05-24T07:40:35;8.90;99.90
11446;DHT22;5779;64.178;15.432;2023-05-24T07:43:22;8.70;99.90
11446;DHT22;5779;64.178;15.432;2023-05-24T07:46:09;8.80;99.90
11446;DHT22;5779;64.178;15.432;2023-05-24T07:48:56;8.80;99.90
11446;DHT22;5779;64.178;15.432;2023-05-24T07:51:43;8.80;99.90
11446;DHT22;5779;64.178;15.432;2023-05-24T07:54:31;8.70;99.90
11446;DHT22;5779;64.178;15.432;2023-05-24T07:57:18;8.70;99.90
11446;DHT22;5779;64.178;15.432;2023-05-24T08:00:06;8.60;99.90
11446;DHT22;5779;64.178;15.432;2023-05-24T08:02:58;8.50;99.90
11446;DHT22;5779;64.178;15.432;2023-05-24T08:05:45;8.50;99.90
11446;DHT22;5779;64.178;15.432;2023-05-24T08:08:32;8.40;99.90
11446;DHT22;5779;64.178;15.432;2023-05-24T08:11:21;8.50;99.90
11446;DHT22;5779;64.178;15.432;2023-05-24T08:14:08;8.70;99.90
11446;DHT22;5779;64.178;15.432;2023-05-24T08:16:55;8.80;99.90
11446;DHT22;5779;64.178;15.432;2023-05-24T08:19:42;8.80;99.90
11446;DHT22;5779;64.178;15.432;2023-05-24T08:22:29;8.90;99.90
11446;DHT22;5779;64.178;15.432;2023-05-24T08:25:15;8.90;99.90
11446;DHT22;5779;64.178;15.432;2023-05-24T08:28:04;8.80;99.90
11446;DHT22;5779;64.178;15.432;2023-05-24T08:30:51;8.70;99.90
11446;DHT22;5779;64.178;15.432;2023-05-24T08:33:38;8.70;99.90
11446;DHT22;5779;64.178;15.432;2023-05-24T08:36:25;8.60;99.90
11446;DHT22;5779;64.178;15.432;2023-05-24T08:39:12;8.60;99.90
11446;DHT22;5779;64.178;15.432;2023-05-24T08:41:59;8.80;99.90
11446;DHT22;5779;64.178;15.432;2023-05-24T08:45:00;8.80;99.90
11446;DHT22;5779;64.178;15.432;2023-05-24T08:47:49;8.90;99.90
11446;DHT22;5779;64.178;15.432;2023-05-24T08:50:36;9.00;99.90
11446;DHT22;5779;64.178;15.432;2023-05-24T08:53:23;9.10;99.90
11446;DHT22;5779;64.178;15.432;2023-05-24T08:56:11;9.30;99.90
11446;DHT22;5779;64.178;15.432;2023-05-24T08:58:58;9.30;99.90
11446;DHT22;5779;64.178;15.432;2023-05-24T09:01:50;9.30;99.90
11446;DHT22;5779;64.178;15.432;2023-05-24T09:04:38;9.10;99.90
11446;DHT22;5779;64.178;15.432;2023-05-24T09:07:25;9.10;99.90
11446;DHT22;5779;64.178;15.432;2023-05-24T09:10:13;9.00;99.90
11446;DHT22;5779;64.178;15.432;2023-05-24T09:13:02;9.00;99.90
11446;DHT22;5779;64.178;15.432;2023-05-24T09:15:49;9.20;99.90
11446;DHT22;5779;64.178;15.432;2023-05-24T09:18:39;9.20;99.90
11446;DHT22;5779;64.178;15.432;2023-05-24T09:21:27;9.30;99.90
11446;DHT22;5779;64.178;15.432;2023-05-24T09:24:15;9.30;99.90
11446;DHT22;5779;64.178;15.432;2023-05-24T09:27:04;9.40;99.90
11446;DHT22;5779;64.178;15.432;2023-05-24T09:29:51;9.40;99.90
11446;DHT22;5779;64.178;15.432;2023-05-24T09:32:38;9.30;99.90
11446;DHT22;5779;64.178;15.432;2023-05-24T09:35:27;9.20;99.90
11446;DHT22;5779;64.178;15.432;2023-05-24T09:38:17;9.20;99.90
11446;DHT22;5779;64.178;15.432;2023-05-24T09:41:05;9.10;99.90
11446;DHT22;5779;64.178;15.432;2023-05-24T09:43:52;8.80;99.90
11446;DHT22;5779;64.178;15.432;2023-05-24T09:46:39;8.60;99.90
11446;DHT22;5779;64.178;15.432;2023-05-24T09:49:27;8.60;99.90
11446;DHT22;5779;64.178;15.432;2023-05-24T09:52:15;8.40;99.90
11446;DHT22;5779;64.178;15.432;2023-05-24T09:55:10;8.50;99.90
11446;DHT22;5779;64.178;15.432;2023-05-24T09:58:02;8.60;99.90
11446;DHT22;5779;64.178;15.432;2023-05-24T10:00:49;8.50;99.90
11446;DHT22;5779;64.178;15.432;2023-05-24T10:03:36;8.30;99.90
11446;DHT22;5779;64.178;15.432;2023-05-24T10:06:24;8.30;99.90
11446;DHT22;5779;64.178;15.432;2023-05-24T10:09:13;8.30;99.90
11446;DHT22;5779;64.178;15.432;2023-05-24T10:12:05;8.20;99.90
11446;DHT22;5779;64.178;15.432;2023-05-24T10:14:52;8.30;99.90
11446;DHT22;5779;64.178;15.432;2023-05-24T10:17:41;8.30;99.90
11446;DHT22;5779;64.178;15.432;2023-05-24T10:20:28;8.30;99.90
11446;DHT22;5779;64.178;15.432;2023-05-24T10:23:19;8.20;99.90
11446;DHT22;5779;64.178;15.432;2023-05-24T10:26:09;8.30;99.90
11446;DHT22;5779;64.178;15.432;2023-05-24T10:29:00;8.30;99.90
11446;DHT22;5779;64.178;15.432;2023-05-24T10:31:51;8.40;99.90
11446;DHT22;5779;64.178;15.432;2023-05-24T10:34:38;8.40;99.90
11446;DHT22;5779;64.178;15.432;2023-05-24T10:37:26;8.40;99.90
11446;DHT22;5779;64.178;15.432;2023-05-24T10:40:17;8.30;99.90
11446;DHT22;5779;64.178;15.432;2023-05-24T10:43:07;8.30;99.90
11446;DHT22;5779;64.178;15.432;2023-05-24T10:45:54;8.20;99.90
11446;DHT22;5779;64.178;15.432;2023-05-24T10:48:40;8.30;99.90
11446;DHT22;5779;64.178;15.432;2023-05-24T10:51:33;8.30;99.90
11446;DHT22;5779;64.178;15.432;2023-05-24T10:54:24;8.40;99.90
11446;DHT22;5779;64.178;15.432;2023-05-24T10:57:11;8.40;99.90
11446;DHT22;5779;64.178;15.432;2023-05-24T11:00:25;8.40;99.90
11446;DHT22;5779;64.178;15.432;2023-05-24T11:03:13;8.40;99.90
11446;DHT22;5779;64.178;15.432;2023-05-24T11:06:07;8.60;99.90
11446;DHT22;5779;64.178;15.432;2023-05-24T11:08:59;8.70;99.90
11446;DHT22;5779;64.178;15.432;2023-05-24T11:11:47;8.80;99.90
11446;DHT22;5779;64.178;15.432;2023-05-24T11:14:37;8.90;99.90
11446;DHT22;5779;64.178;15.432;2023-05-24T11:17:26;9.00;99.90
11446;DHT22;5779;64.178;15.432;2023-05-24T11:20:12;9.10;99.90
11446;DHT22;5779;64.178;15.432;2023-05-24T11:23:01;9.30;99.90
11446;DHT22;5779;64.178;15.432;2023-05-24T11:25:48;9.20;99.90
11446;DHT22;5779;64.178;15.432;2023-05-24T11:28:36;9.50;99.90
11446;DHT22;5779;64.178;15.432;2023-05-24T11:31:26;9.70;99.90
11446;DHT22;5779;64.178;15.432;2023-05-24T11:34:15;9.70;99.90
11446;DHT22;5779;64.178;15.432;2023-05-24T11:37:02;10.10;99.90
11446;DHT22;5779;64.178;15.432;2023-05-24T11:39:50;10.20;99.90
11446;DHT22;5779;64.178;15.432;2023-05-24T11:42:38;10.40;99.90
11446;DHT22;5779;64.178;15.432;2023-05-24T11:45:27;10.20;99.90
11446;DHT22;5779;64.178;15.432;2023-05-24T11:48:14;10.20;99.90
11446;DHT22;5779;64.178;15.432;2023-05-24T11:51:04;10.10;99.90
11446;DHT22;5779;64.178;15.432;2023-05-24T11:53:50;10.10;99.90
11446;DHT22;5779;64.178;15.432;2023-05-24T11:56:37;10.20;99.90
11446;DHT22;5779;64.178;15.432;2023-05-24T11:59:25;10.20;99.90
11446;DHT22;5779;64.178;15.432;2023-05-24T12:02:13;10.40;99.90
11446;DHT22;5779;64.178;15.432;2023-05-24T12:05:06;10.60;99.90
11446;DHT22;5779;64.178;15.432;2023-05-24T12:08:02;10.70;99.90
11446;DHT22;5779;64.178;15.432;2023-05-24T12:10:50;10.80;99.90
11446;DHT22;5779;64.178;15.432;2023-05-24T12:13:39;10.90;99.90
11446;DHT22;5779;64.178;15.432;2023-05-24T12:16:26;11.10;99.90
11446;DHT22;5779;64.178;15.432;2023-05-24T12:19:17;11.20;99.90
11446;DHT22;5779;64.178;15.432;2023-05-24T12:22:05;11.30;99.90
11446;DHT22;5779;64.178;15.432;2023-05-24T12:24:53;11.20;99.90
11446;DHT22;5779;64.178;15.432;2023-05-24T12:27:42;11.00;99.90
11446;DHT22;5779;64.178;15.432;2023-05-24T12:30:32;10.90;99.90
11446;DHT22;5779;64.178;15.432;2023-05-24T12:33:19;10.90;99.90
11446;DHT22;5779;64.178;15.432;2023-05-24T12:36:06;11.00;99.90
11446;DHT22;5779;64.178;15.432;2023-05-24T12:38:56;10.90;99.90
11446;DHT22;5779;64.178;15.432;2023-05-24T12:41:48;11.00;99.90
11446;DHT22;5779;64.178;15.432;2023-05-24T12:44:36;11.10;99.90
11446;DHT22;5779;64.178;15.432;2023-05-24T12:47:23;11.30;99.90
11446;DHT22;5779;64.178;15.432;2023-05-24T12:50:11;11.50;99.90
11446;DHT22;5779;64.178;15.432;2023-05-24T12:52:58;11.50;99.90
11446;DHT22;5779;64.178;15.432;2023-05-24T12:55:44;11.50;99.90
11446;DHT22;5779;64.178;15.432;2023-05-24T12:58:33;11.70;99.90
11446;DHT22;5779;64.178;15.432;2023-05-24T13:01:19;11.60;99.90
11446;DHT22;5779;64.178;15.432;2023-05-24T13:04:06;11.70;99.90
11446;DHT22;5779;64.178;15.432;2023-05-24T13:06:54;11.70;99.90
11446;DHT22;5779;64.178;15.432;2023-05-24T13:09:41;11.80;99.90
11446;DHT22;5779;64.178;15.432;2023-05-24T13:12:28;11.90;99.90
11446;DHT22;5779;64.178;15.432;2023-05-24T13:15:16;11.90;99.90
11446;DHT22;5779;64.178;15.432;2023-05-24T13:18:06;12.00;99.90
11446;DHT22;5779;64.178;15.432;2023-05-24T13:20:52;12.20;99.90
11446;DHT22;5779;64.178;15.432;2023-05-24T13:23:39;12.50;99.90
11446;DHT22;5779;64.178;15.432;2023-05-24T13:26:27;12.70;99.90
11446;DHT22;5779;64.178;15.432;2023-05-24T13:29:14;12.70;99.90
11446;DHT22;5779;64.178;15.432;2023-05-24T13:32:03;13.00;99.90
11446;DHT22;5779;64.178;15.432;2023-05-24T13:34:49;13.10;99.90
11446;DHT22;5779;64.178;15.432;2023-05-24T13:37:36;13.50;99.90
11446;DHT22;5779;64.178;15.432;2023-05-24T13:40:23;13.80;99.90
11446;DHT22;5779;64.178;15.432;2023-05-24T13:43:10;14.10;99.90
11446;DHT22;5779;64.178;15.432;2023-05-24T13:45:57;14.00;99.90
11446;DHT22;5779;64.178;15.432;2023-05-24T13:48:45;13.70;99.90
11446;DHT22;5779;64.178;15.432;2023-05-24T13:51:32;13.50;99.90
11446;DHT22;5779;64.178;15.432;2023-05-24T13:54:19;13.40;99.90
11446;DHT22;5779;64.178;15.432;2023-05-24T13:57:06;13.30;99.90
11446;DHT22;5779;64.178;15.432;2023-05-24T13:59:53;13.10;99.90
11446;DHT22;5779;64.178;15.432;2023-05-24T14:02:40;13.00;99.90
11446;DHT22;5779;64.178;15.432;2023-05-24T14:05:28;12.90;99.90
11446;DHT22;5779;64.178;15.432;2023-05-24T14:08:15;12.80;99.90
11446;DHT22;5779;64.178;15.432;2023-05-24T14:11:02;12.70;99.90
11446;DHT22;5779;64.178;15.432;2023-05-24T14:13:49;12.70;99.90
11446;DHT22;5779;64.178;15.432;2023-05-24T14:16:35;12.80;99.90
11446;DHT22;5779;64.178;15.432;2023-05-24T14:19:22;12.30;99.90
11446;DHT22;5779;64.178;15.432;2023-05-24T14:22:10;11.30;99.90
11446;DHT22;5779;64.178;15.432;2023-05-24T14:24:57;10.90;99.90
11446;DHT22;5779;64.178;15.432;2023-05-24T14:27:43;10.70;99.90
11446;DHT22;5779;64.178;15.432;2023-05-24T14:30:30;10.40;99.90
11446;DHT22;5779;64.178;15.432;2023-05-24T14:33:17;10.50;99.90
11446;DHT22;5779;64.178;15.432;2023-05-24T14:36:05;10.50;99.90
11446;DHT22;5779;64.178;15.432;2023-05-24T14:38:53;10.50;99.90
11446;DHT22;5779;64.178;15.432;2023-05-24T14:41:40;10.30;99.90
11446;DHT22;5779;64.178;15.432;2023-05-24T14:44:27;10.30;99.90
11446;DHT22;5779;64.178;15.432;2023-05-24T14:47:13;10.30;99.90
11446;DHT22;5779;64.178;15.432;2023-05-24T14:50:00;10.20;99.90
11446;DHT22;5779;64.178;15.432;2023-05-24T14:52:47;10.10;99.90
11446;DHT22;5779;64.178;15.432;2023-05-24T14:55:36;10.10;99.90
11446;DHT22;5779;64.178;15.432;2023-05-24T14:58:22;10.00;99.90
11446;DHT22;5779;64.178;15.432;2023-05-24T15:01:10;9.90;99.90
11446;DHT22;5779;64.178;15.432;2023-05-24T15:03:57;9.90;99.90
11446;DHT22;5779;64.178;15.432;2023-05-24T15:06:44;9.90;99.90
11446;DHT22;5779;64.178;15.432;2023-05-24T15:09:31;9.90;99.90
11446;DHT22;5779;64.178;15.432;2023-05-24T15:12:19;9.90;99.90
11446;DHT22;5779;64.178;15.432;2023-05-24T15:15:07;9.70;99.90
11446;DHT22;5779;64.178;15.432;2023-05-24T15:17:54;9.60;99.90
11446;DHT22;5779;64.178;15.432;2023-05-24T15:20:45;9.40;99.90
11446;DHT22;5779;64.178;15.432;2023-05-24T15:23:32;9.30;99.90
11446;DHT22;5779;64.178;15.432;2023-05-24T15:26:20;9.20;99.90
11446;DHT22;5779;64.178;15.432;2023-05-24T15:29:08;9.20;99.90
11446;DHT22;5779;64.178;15.432;2023-05-24T15:31:55;9.20;99.90
11446;DHT22;5779;64.178;15.432;2023-05-24T15:34:42;9.10;99.90
11446;DHT22;5779;64.178;15.432;2023-05-24T15:37:29;9.00;99.90
11446;DHT22;5779;64.178;15.432;2023-05-24T15:40:16;9.10;99.90
11446;DHT22;5779;64.178;15.432;2023-05-24T15:43:03;9.10;99.90
11446;DHT22;5779;64.178;15.432;2023-05-24T15:45:51;9.10;99.90
11446;DHT22;5779;64.178;15.432;2023-05-24T15:48:38;9.00;99.90
11446;DHT22;5779;64.178;15.432;2023-05-24T15:51:25;9.00;99.90
11446;DHT22;5779;64.178;15.432;2023-05-24T15:54:12;8.90;99.90
11446;DHT22;5779;64.178;15.432;2023-05-24T15:56:59;8.70;99.90
11446;DHT22;5779;64.178;15.432;2023-05-24T15:59:46;8.70;99.90
11446;DHT22;5779;64.178;15.432;2023-05-24T16:02:35;8.40;99.90
11446;DHT22;5779;64.178;15.432;2023-05-24T16:05:22;8.30;99.90
11446;DHT22;5779;64.178;15.432;2023-05-24T16:08:12;8.40;99.90
11446;DHT22;5779;64.178;15.432;2023-05-24T16:11:00;8.30;99.90
11446;DHT22;5779;64.178;15.432;2023-05-24T16:13:52;8.30;99.90
11446;DHT22;5779;64.178;15.432;2023-05-24T16:16:39;8.20;99.90
11446;DHT22;5779;64.178;15.432;2023-05-24T16:19:27;8.10;99.90
11446;DHT22;5779;64.178;15.432;2023-05-24T16:22:14;8.10;99.90
11446;DHT22;5779;64.178;15.432;2023-05-24T16:25:01;8.10;99.90
11446;DHT22;5779;64.178;15.432;2023-05-24T16:27:48;8.00;99.90
11446;DHT22;5779;64.178;15.432;2023-05-24T16:30:35;8.00;99.90
11446;DHT22;5779;64.178;15.432;2023-05-24T16:33:22;8.00;99.90
11446;DHT22;5779;64.178;15.432;2023-05-24T16:36:10;8.10;99.90
11446;DHT22;5779;64.178;15.432;2023-05-24T16:38:57;8.00;99.90
11446;DHT22;5779;64.178;15.432;2023-05-24T16:41:44;8.00;99.90
11446;DHT22;5779;64.178;15.432;2023-05-24T16:44:31;8.00;99.90
11446;DHT22;5779;64.178;15.432;2023-05-24T16:47:18;7.90;99.90
11446;DHT22;5779;64.178;15.432;2023-05-24T16:50:06;7.90;99.90
11446;DHT22;5779;64.178;15.432;2023-05-24T16:53:00;7.80;99.90
11446;DHT22;5779;64.178;15.432;2023-05-24T16:55:46;7.80;99.90
11446;DHT22;5779;64.178;15.432;2023-05-24T16:58:37;7.80;99.90
11446;DHT22;5779;64.178;15.432;2023-05-24T17:01:24;7.80;99.90
11446;DHT22;5779;64.178;15.432;2023-05-24T17:04:11;7.70;99.90
11446;DHT22;5779;64.178;15.432;2023-05-24T17:06:58;7.60;99.90
11446;DHT22;5779;64.178;15.432;2023-05-24T17:09:48;7.60;99.90
11446;DHT22;5779;64.178;15.432;2023-05-24T17:12:35;7.60;99.90
11446;DHT22;5779;64.178;15.432;2023-05-24T17:15:22;7.50;99.90
11446;DHT22;5779;64.178;15.432;2023-05-24T17:18:09;7.50;99.90
11446;DHT22;5779;64.178;15.432;2023-05-24T17:20:56;7.50;99.90
11446;DHT22;5779;64.178;15.432;2023-05-24T17:23:44;7.40;99.90
11446;DHT22;5779;64.178;15.432;2023-05-24T17:26:32;7.50;99.90
11446;DHT22;5779;64.178;15.432;2023-05-24T17:29:19;7.50;99.90
11446;DHT22;5779;64.178;15.432;2023-05-24T17:32:06;7.50;99.90
11446;DHT22;5779;64.178;15.432;2023-05-24T17:34:53;7.60;99.90
11446;DHT22;5779;64.178;15.432;2023-05-24T17:37:40;7.70;99.90
11446;DHT22;5779;64.178;15.432;2023-05-24T17:40:27;7.90;99.90
11446;DHT22;5779;64.178;15.432;2023-05-24T17:43:15;7.90;99.90
11446;DHT22;5779;64.178;15.432;2023-05-24T17:46:04;7.80;99.90
11446;DHT22;5779;64.178;15.432;2023-05-24T17:48:51;7.80;99.90
11446;DHT22;5779;64.178;15.432;2023-05-24T17:51:38;7.80;99.90
11446;DHT22;5779;64.178;15.432;2023-05-24T17:54:25;7.90;99.90
11446;DHT22;5779;64.178;15.432;2023-05-24T17:57:12;7.80;99.90